AirNav  
 
Fuel
  

P64 Miller Airport
Burgettstown, Pennsylvania, USA

GOING TO BURGETTSTOWN?

Reserve a HOTEL

FAA INFORMATION EFFECTIVE 05 AUGUST 2004

Location

FAA Identifier: P64
Lat/Long: 40-27-23.243N / 080-26-11.236W
40-27.38738N / 080-26.18727W
40.4564564 / -80.4364544
(estimated)
Elevation: 1230 ft. / 375 m (estimated)
Variation: 07W (1985)
From city: 4 miles NW of BURGETTSTOWN, PA

Airport Operations

Airport use: Open to the public
Activation date: 07/1985
Sectional chart: DETROIT
Control tower: no
ARTCC: CLEVELAND CENTER
FSS: ALTOONA FLIGHT SERVICE STATION [1-800-WX-BRIEF]
NOTAMs facility: AOO (NOTAM-D service available)
Attendance: DAWN-DUSK
Wind indicator: lighted
Segmented circle: yes
Lights: PHONE REQ
LIRL RY 15/33 & ROTG BCN AVBL ONLY BY PRIOR PHONE REQUEST - 724-947-9588.
Beacon: white-green (lighted land airport)

Airport Communications

CTAF: 122.9
WX ASOS at PIT (10 nm E): PHONE 412-472-0145
WX ASOS at HLG (19 nm SW): 127.375 (304-277-3504)

Nearby radio navigation aids

VOR radial/distance  VOR name  Freq  Var
MMJr268/11.2MONTOUR VORTAC112.0008W
HLGr034/13.3WHEELING VOR/DME112.2007W
AGCr310/21.0ALLEGHENY VOR/DME110.0009W
EWCr213/24.4ELLWOOD CITY VORTAC115.8008W
AIRr040/31.6BELLAIRE VOR/DME117.1007W

 
NDB name  Hdg/Dist  Freq  Var  ID
WASHINGTON COUNTY334/22.525508WPNU .--. -. ..-
CADIZ070/29.523907WCFX -.-. ..-. -..-
TOLSON109/29.939507WTSO - ... ---
MC KEESPORT288/30.628707WMKP -- -.- .--.
CASTLE188/34.027206WUCP ..- -.-. .--.

Airport Services

Parking: tiedowns

Runway Information

Runway 15/33

Dimensions: 2505 x 100 ft. / 764 x 30 m
Surface: turf/dirt, in fair condition
Runway edge lights: low intensity
Runway edge markings: /33 MKD WITH BOUNDARY MARKERS; GOOD COND.
RUNWAY 15  RUNWAY 33
Traffic pattern: leftleft
Obstructions: 68 ft. trees, 914 ft. from runway, 127 ft. left of centerline, 13:1 slope to clear23 ft. trees, 356 ft. from runway, 84 ft. right of centerline, 15:1 slope to clear

Airport Operational Statistics

Aircraft based on the field: 20
Single engine airplanes: 8
Ultralights: 12
    
Aircraft operations: avg 50/month
67% transient general aviation
33% local general aviation

Additional Remarks

FLOCKS OF GEESE & TURKEY & OCNL DEER ON & INVOF ARPT.
(ARPT STATUS) ARPT CLSD PERMLY.

Instrument Procedures

There are no published instrument procedures at P64.

Some nearby airports with instrument procedures:

KPIT - Pittsburgh International Airport (10 nm E)
2G2 - Jefferson County Airpark (13 nm SW)
02G - Columbiana County Airport (16 nm NW)
KBVI - Beaver County Airport (19 nm N)
KHLG - Wheeling Ohio County Airport (19 nm SW)
 
Loc | Ops | Rwys | IFR | FBO | Links
Com | Nav | Svcs | Stats | Notes
 
Area around P64 (Miller Airport)
 
No photo
 
Airport distance calculator
Flying to Miller Airport? Find the distance to fly.

From to P64

Sunrise and sunset
Times for 27-Sep-2004
 Local
(UTC-4)
 Zulu
(UTC)
Morning civil twilight06:4910:49
Sunrise07:1611:16
Sunset19:0923:09
Evening civil twilight19:3623:36
 
METAR
KPIT 
8nm E 
270951Z 00000KT 10SM FEW150 BKN220 11/10 A3010
KBVI 
19nm N 
270047Z 00000KT 10SM SCT250 17/12 A3019 RMK LAST
KHLG 
20nm SW 
270953Z AUTO 07004KT 6SM BR CLR 11/11 A3009 RMK AO2 SLP190 T01110106
TAF
KPIT 
8nm E 
270538Z 270606 VRB03KT P6SM SCT200
FM0900 VRB03KT 5SM BR BKN200
FM1300 10006KT P6SM SCT040 BKN200
FM2200 12005KT P6SM BKN040 OVC200
FM0400 09005KT P6SM OVC040
KBVI 
19nm N 
270538Z 270606 NIL
KHLG 
20nm SW 
270538Z 270606 NIL

 
 

Where to Stay: Hotels, Motels, Resorts, B&Bs;, Campgrounds

 In this space we feature lodging establishments that are convenient to the Miller Airport. If your hotel/inn/B&B;/resort is near the Miller Airport, provides convenient transportation, or is otherwise attractive to pilots, flight crews, and airport users, consider listing it here.  
Feature A Hotel
 

Hotels in other cities near Miller Airport

2 in Weirton, WV
1 in Moon Township
2 in Steubenville, OH
1 in East Liverpool, OH
1 in Oakdale
10 in Coraopolis
1 in Monaca
2 in Bridgeville
1 in Canonsburg
1 in Carnegie
 

Would you like to see your business listed on this page?

 If your business provides an interesting product or service to pilots, flight crews, aircraft, or users of the Miller Airport, you should consider listing it here.  To start the listing process, click on the button below
 
Add a business
 

Other Pages about Miller Airport

Add a link
 
Copyright © AirNav, LLC. All rights reserved. Privacy Policy  Contact